sensor_id;sensor_type;location;lat;lon;timestamp;pressure;altitude;pressure_sealevel;temperature;humidity
54870;BME280;40756;-37.950;145.008;2023-04-21T00:00:09;102796.61;;;17.88;52.59
54870;BME280;40756;-37.950;145.008;2023-04-21T00:02:39;102797.22;;;18.14;51.83
54870;BME280;40756;-37.950;145.008;2023-04-21T00:05:09;102800.43;;;17.49;52.40
54870;BME280;40756;-37.950;145.008;2023-04-21T00:07:39;102794.93;;;18.30;51.39
54870;BME280;40756;-37.950;145.008;2023-04-21T00:10:10;102799.25;;;17.58;51.63
54870;BME280;40756;-37.950;145.008;2023-04-21T00:12:39;102799.63;;;18.38;51.56
54870;BME280;40756;-37.950;145.008;2023-04-21T00:15:09;102799.22;;;18.29;50.89
54870;BME280;40756;-37.950;145.008;2023-04-21T00:17:39;102798.06;;;18.29;51.12
54870;BME280;40756;-37.950;145.008;2023-04-21T00:20:10;102797.42;;;18.54;50.22
54870;BME280;40756;-37.950;145.008;2023-04-21T00:22:39;102799.04;;;18.47;51.30
54870;BME280;40756;-37.950;145.008;2023-04-21T00:25:09;102791.79;;;18.93;50.43
54870;BME280;40756;-37.950;145.008;2023-04-21T00:27:39;102791.36;;;18.56;49.82
54870;BME280;40756;-37.950;145.008;2023-04-21T00:30:09;102789.43;;;17.62;51.50
54870;BME280;40756;-37.950;145.008;2023-04-21T00:32:39;102787.85;;;18.34;50.83
54870;BME280;40756;-37.950;145.008;2023-04-21T00:35:09;102784.01;;;17.95;51.54
54870;BME280;40756;-37.950;145.008;2023-04-21T00:37:39;102778.01;;;17.83;51.85
54870;BME280;40756;-37.950;145.008;2023-04-21T00:40:10;102773.58;;;19.18;50.23
54870;BME280;40756;-37.950;145.008;2023-04-21T00:42:39;102773.31;;;18.42;51.71
54870;BME280;40756;-37.950;145.008;2023-04-21T00:45:09;102769.91;;;18.60;51.69
54870;BME280;40756;-37.950;145.008;2023-04-21T00:47:39;102766.36;;;18.83;50.21
54870;BME280;40756;-37.950;145.008;2023-04-21T00:50:10;102768.54;;;17.93;51.62
54870;BME280;40756;-37.950;145.008;2023-04-21T00:52:40;102769.81;;;18.42;52.33
54870;BME280;40756;-37.950;145.008;2023-04-21T00:55:10;102769.60;;;18.63;50.54
54870;BME280;40756;-37.950;145.008;2023-04-21T00:57:40;102767.23;;;18.94;50.77
54870;BME280;40756;-37.950;145.008;2023-04-21T01:00:10;102768.64;;;19.20;49.04
54870;BME280;40756;-37.950;145.008;2023-04-21T01:02:40;102766.85;;;19.40;48.14
54870;BME280;40756;-37.950;145.008;2023-04-21T01:05:10;102766.55;;;19.35;48.42
54870;BME280;40756;-37.950;145.008;2023-04-21T01:07:40;102766.63;;;18.79;49.12
54870;BME280;40756;-37.950;145.008;2023-04-21T01:10:10;102767.69;;;18.25;50.68
54870;BME280;40756;-37.950;145.008;2023-04-21T01:12:44;102764.36;;;18.63;50.60
54870;BME280;40756;-37.950;145.008;2023-04-21T01:15:15;102762.72;;;18.81;49.60
54870;BME280;40756;-37.950;145.008;2023-04-21T01:17:45;102767.38;;;18.18;51.07
54870;BME280;40756;-37.950;145.008;2023-04-21T01:20:14;102768.77;;;18.55;51.60
54870;BME280;40756;-37.950;145.008;2023-04-21T01:22:44;102766.97;;;18.12;51.91
54870;BME280;40756;-37.950;145.008;2023-04-21T01:25:14;102762.05;;;18.43;51.50
54870;BME280;40756;-37.950;145.008;2023-04-21T01:27:43;102762.84;;;18.52;51.63
54870;BME280;40756;-37.950;145.008;2023-04-21T01:30:13;102759.38;;;19.09;51.08
54870;BME280;40756;-37.950;145.008;2023-04-21T01:32:42;102765.07;;;17.30;54.37
54870;BME280;40756;-37.950;145.008;2023-04-21T01:35:12;102759.39;;;18.30;52.83
54870;BME280;40756;-37.950;145.008;2023-04-21T01:37:41;102759.10;;;17.78;52.81
54870;BME280;40756;-37.950;145.008;2023-04-21T01:40:12;102753.43;;;18.69;52.60
54870;BME280;40756;-37.950;145.008;2023-04-21T01:42:42;102752.72;;;19.05;51.45
54870;BME280;40756;-37.950;145.008;2023-04-21T01:45:12;102753.03;;;19.11;50.58
54870;BME280;40756;-37.950;145.008;2023-04-21T01:47:43;102752.19;;;18.57;51.41
54870;BME280;40756;-37.950;145.008;2023-04-21T01:50:13;102755.58;;;18.66;51.46
54870;BME280;40756;-37.950;145.008;2023-04-21T01:52:42;102758.31;;;18.23;52.84
54870;BME280;40756;-37.950;145.008;2023-04-21T01:55:11;102756.87;;;18.77;51.79
54870;BME280;40756;-37.950;145.008;2023-04-21T01:57:41;102749.91;;;19.22;50.64
54870;BME280;40756;-37.950;145.008;2023-04-21T02:00:11;102754.82;;;18.87;50.91
54870;BME280;40756;-37.950;145.008;2023-04-21T02:02:41;102752.88;;;18.40;51.83
54870;BME280;40756;-37.950;145.008;2023-04-21T02:05:10;102751.47;;;18.36;53.01
54870;BME280;40756;-37.950;145.008;2023-04-21T02:07:40;102744.00;;;19.04;51.14
54870;BME280;40756;-37.950;145.008;2023-04-21T02:10:10;102742.49;;;19.01;51.02
54870;BME280;40756;-37.950;145.008;2023-04-21T02:12:40;102736.57;;;18.92;50.53
54870;BME280;40756;-37.950;145.008;2023-04-21T02:15:10;102730.70;;;19.83;49.09
54870;BME280;40756;-37.950;145.008;2023-04-21T02:17:40;102728.25;;;19.91;47.96
54870;BME280;40756;-37.950;145.008;2023-04-21T02:20:10;102722.83;;;19.73;48.48
54870;BME280;40756;-37.950;145.008;2023-04-21T02:22:40;102720.11;;;20.86;47.11
54870;BME280;40756;-37.950;145.008;2023-04-21T02:25:09;102719.73;;;20.57;46.76
54870;BME280;40756;-37.950;145.008;2023-04-21T02:27:38;102721.28;;;20.05;46.43
54870;BME280;40756;-37.950;145.008;2023-04-21T02:30:09;102715.97;;;20.20;46.10
54870;BME280;40756;-37.950;145.008;2023-04-21T02:32:38;102710.35;;;19.69;47.71
54870;BME280;40756;-37.950;145.008;2023-04-21T02:35:08;102711.90;;;18.58;49.31
54870;BME280;40756;-37.950;145.008;2023-04-21T02:37:38;102708.11;;;19.80;47.91
54870;BME280;40756;-37.950;145.008;2023-04-21T02:40:09;102708.88;;;18.89;49.47
54870;BME280;40756;-37.950;145.008;2023-04-21T02:42:38;102703.72;;;19.33;49.37
54870;BME280;40756;-37.950;145.008;2023-04-21T02:45:09;102703.38;;;19.09;49.86
54870;BME280;40756;-37.950;145.008;2023-04-21T02:47:39;102702.16;;;19.33;50.22
54870;BME280;40756;-37.950;145.008;2023-04-21T02:50:10;102700.58;;;19.08;50.20
54870;BME280;40756;-37.950;145.008;2023-04-21T02:52:41;102697.35;;;19.16;49.92
54870;BME280;40756;-37.950;145.008;2023-04-21T02:55:11;102695.69;;;18.79;50.31
54870;BME280;40756;-37.950;145.008;2023-04-21T02:57:40;102689.77;;;19.81;49.01
54870;BME280;40756;-37.950;145.008;2023-04-21T03:00:10;102687.10;;;19.71;48.87
54870;BME280;40756;-37.950;145.008;2023-04-21T03:02:40;102685.67;;;19.65;47.94
54870;BME280;40756;-37.950;145.008;2023-04-21T03:05:10;102684.22;;;19.85;48.10
54870;BME280;40756;-37.950;145.008;2023-04-21T03:07:40;102686.36;;;19.92;47.53
54870;BME280;40756;-37.950;145.008;2023-04-21T03:10:09;102687.36;;;20.17;46.50
54870;BME280;40756;-37.950;145.008;2023-04-21T03:12:39;102687.62;;;19.85;47.24
54870;BME280;40756;-37.950;145.008;2023-04-21T03:15:09;102683.76;;;20.21;47.63
54870;BME280;40756;-37.950;145.008;2023-04-21T03:17:38;102681.83;;;19.72;48.50
54870;BME280;40756;-37.950;145.008;2023-04-21T03:20:08;102682.57;;;19.97;47.75
54870;BME280;40756;-37.950;145.008;2023-04-21T03:22:38;102683.86;;;20.00;47.16
54870;BME280;40756;-37.950;145.008;2023-04-21T03:25:07;102678.44;;;20.34;46.45
54870;BME280;40756;-37.950;145.008;2023-04-21T03:27:36;102678.07;;;21.55;44.70
54870;BME280;40756;-37.950;145.008;2023-04-21T03:30:07;102676.07;;;20.45;45.29
54870;BME280;40756;-37.950;145.008;2023-04-21T03:32:36;102671.92;;;20.87;43.58
54870;BME280;40756;-37.950;145.008;2023-04-21T03:35:06;102672.80;;;21.52;42.72
54870;BME280;40756;-37.950;145.008;2023-04-21T03:37:35;102673.86;;;21.56;42.31
54870;BME280;40756;-37.950;145.008;2023-04-21T03:40:06;102673.10;;;20.92;43.80
54870;BME280;40756;-37.950;145.008;2023-04-21T03:42:35;102675.65;;;20.33;45.32
54870;BME280;40756;-37.950;145.008;2023-04-21T03:45:06;102672.71;;;20.77;44.04
54870;BME280;40756;-37.950;145.008;2023-04-21T03:47:36;102672.13;;;21.51;43.14
54870;BME280;40756;-37.950;145.008;2023-04-21T03:50:06;102671.55;;;21.21;44.12
54870;BME280;40756;-37.950;145.008;2023-04-21T03:52:36;102673.10;;;20.22;44.82
54870;BME280;40756;-37.950;145.008;2023-04-21T03:55:06;102667.67;;;20.92;42.88
54870;BME280;40756;-37.950;145.008;2023-04-21T03:57:37;102668.26;;;20.57;43.66
54870;BME280;40756;-37.950;145.008;2023-04-21T04:00:08;102667.22;;;20.57;41.70
54870;BME280;40756;-37.950;145.008;2023-04-21T04:02:38;102671.86;;;19.78;42.54
54870;BME280;40756;-37.950;145.008;2023-04-21T04:05:08;102671.38;;;20.36;41.35
54870;BME280;40756;-37.950;145.008;2023-04-21T04:07:37;102667.89;;;20.93;41.11
54870;BME280;40756;-37.950;145.008;2023-04-21T04:10:07;102671.45;;;20.54;40.50
54870;BME280;40756;-37.950;145.008;2023-04-21T04:12:36;102669.06;;;21.11;40.44
54870;BME280;40756;-37.950;145.008;2023-04-21T04:15:07;102667.34;;;21.15;39.87
54870;BME280;40756;-37.950;145.008;2023-04-21T04:17:36;102668.93;;;19.83;41.25
54870;BME280;40756;-37.950;145.008;2023-04-21T04:20:07;102671.15;;;20.15;41.11
54870;BME280;40756;-37.950;145.008;2023-04-21T04:22:37;102668.98;;;20.48;41.32
54870;BME280;40756;-37.950;145.008;2023-04-21T04:25:07;102669.61;;;21.21;40.46
54870;BME280;40756;-37.950;145.008;2023-04-21T04:27:36;102671.36;;;20.37;40.36
54870;BME280;40756;-37.950;145.008;2023-04-21T04:30:07;102672.18;;;20.28;41.35
54870;BME280;40756;-37.950;145.008;2023-04-21T04:32:36;102671.32;;;20.13;41.22
54870;BME280;40756;-37.950;145.008;2023-04-21T04:35:07;102668.51;;;20.70;41.25
54870;BME280;40756;-37.950;145.008;2023-04-21T04:37:37;102669.98;;;20.83;40.92
54870;BME280;40756;-37.950;145.008;2023-04-21T04:40:08;102671.45;;;20.35;40.86
54870;BME280;40756;-37.950;145.008;2023-04-21T04:42:37;102670.82;;;20.92;40.43
54870;BME280;40756;-37.950;145.008;2023-04-21T04:45:07;102675.61;;;20.86;43.38
54870;BME280;40756;-37.950;145.008;2023-04-21T04:47:37;102671.13;;;20.74;42.40
54870;BME280;40756;-37.950;145.008;2023-04-21T04:50:07;102676.06;;;20.16;41.12
54870;BME280;40756;-37.950;145.008;2023-04-21T04:52:37;102677.35;;;20.67;41.82
54870;BME280;40756;-37.950;145.008;2023-04-21T04:55:08;102676.67;;;20.25;41.47
54870;BME280;40756;-37.950;145.008;2023-04-21T04:57:37;102675.77;;;20.31;41.60
54870;BME280;40756;-37.950;145.008;2023-04-21T05:00:10;102679.91;;;20.42;42.53
54870;BME280;40756;-37.950;145.008;2023-04-21T05:02:39;102680.88;;;20.46;42.03
54870;BME280;40756;-37.950;145.008;2023-04-21T05:05:08;102682.05;;;20.34;42.51
54870;BME280;40756;-37.950;145.008;2023-04-21T05:07:38;102681.20;;;19.32;43.38
54870;BME280;40756;-37.950;145.008;2023-04-21T05:10:08;102678.41;;;19.40;42.89
54870;BME280;40756;-37.950;145.008;2023-04-21T05:12:37;102680.59;;;19.75;42.69
54870;BME280;40756;-37.950;145.008;2023-04-21T05:15:07;102681.86;;;19.52;43.80
54870;BME280;40756;-37.950;145.008;2023-04-21T05:17:37;102682.85;;;19.56;43.61
54870;BME280;40756;-37.950;145.008;2023-04-21T05:20:07;102683.13;;;18.89;45.46
54870;BME280;40756;-37.950;145.008;2023-04-21T05:22:38;102677.43;;;19.52;42.44
54870;BME280;40756;-37.950;145.008;2023-04-21T05:25:08;102676.17;;;20.36;41.81
54870;BME280;40756;-37.950;145.008;2023-04-21T05:27:38;102676.93;;;20.11;42.28
54870;BME280;40756;-37.950;145.008;2023-04-21T05:30:08;102678.24;;;20.51;41.29
54870;BME280;40756;-37.950;145.008;2023-04-21T05:32:38;102678.99;;;19.20;42.43
54870;BME280;40756;-37.950;145.008;2023-04-21T05:35:08;102680.70;;;20.20;41.66
54870;BME280;40756;-37.950;145.008;2023-04-21T05:37:38;102678.03;;;19.70;43.09
54870;BME280;40756;-37.950;145.008;2023-04-21T05:40:08;102675.66;;;20.46;41.69
54870;BME280;40756;-37.950;145.008;2023-04-21T05:42:38;102679.37;;;20.48;41.18
54870;BME280;40756;-37.950;145.008;2023-04-21T05:45:08;102679.52;;;19.34;42.94
54870;BME280;40756;-37.950;145.008;2023-04-21T05:47:37;102680.83;;;19.81;41.96
54870;BME280;40756;-37.950;145.008;2023-04-21T05:50:08;102681.27;;;20.11;41.69
54870;BME280;40756;-37.950;145.008;2023-04-21T05:52:38;102683.07;;;19.84;42.84
54870;BME280;40756;-37.950;145.008;2023-04-21T05:55:08;102682.48;;;19.29;43.44
54870;BME280;40756;-37.950;145.008;2023-04-21T05:57:37;102682.81;;;19.63;42.98
54870;BME280;40756;-37.950;145.008;2023-04-21T06:00:08;102683.75;;;19.93;42.32
54870;BME280;40756;-37.950;145.008;2023-04-21T06:02:38;102681.62;;;19.56;42.77
54870;BME280;40756;-37.950;145.008;2023-04-21T06:05:08;102685.08;;;19.61;42.40
54870;BME280;40756;-37.950;145.008;2023-04-21T06:07:37;102683.99;;;19.18;44.01
54870;BME280;40756;-37.950;145.008;2023-04-21T06:10:07;102688.79;;;18.69;44.53
54870;BME280;40756;-37.950;145.008;2023-04-21T06:12:37;102690.28;;;19.32;43.77
54870;BME280;40756;-37.950;145.008;2023-04-21T06:15:07;102688.67;;;19.26;43.95
54870;BME280;40756;-37.950;145.008;2023-04-21T06:17:37;102693.81;;;19.61;43.65
54870;BME280;40756;-37.950;145.008;2023-04-21T06:20:08;102698.84;;;19.48;43.71
54870;BME280;40756;-37.950;145.008;2023-04-21T06:22:38;102696.76;;;19.49;43.34
54870;BME280;40756;-37.950;145.008;2023-04-21T06:25:08;102700.20;;;19.68;43.75
54870;BME280;40756;-37.950;145.008;2023-04-21T06:27:37;102701.08;;;19.59;44.44
54870;BME280;40756;-37.950;145.008;2023-04-21T06:30:08;102702.08;;;19.51;45.16
54870;BME280;40756;-37.950;145.008;2023-04-21T06:32:37;102703.30;;;19.68;42.79
54870;BME280;40756;-37.950;145.008;2023-04-21T06:35:07;102704.33;;;19.69;43.61
54870;BME280;40756;-37.950;145.008;2023-04-21T06:37:37;102705.49;;;19.76;43.34
54870;BME280;40756;-37.950;145.008;2023-04-21T06:40:07;102709.40;;;19.66;44.14
54870;BME280;40756;-37.950;145.008;2023-04-21T06:42:37;102708.05;;;19.93;43.69
54870;BME280;40756;-37.950;145.008;2023-04-21T06:45:07;102712.95;;;19.86;44.10
54870;BME280;40756;-37.950;145.008;2023-04-21T06:47:37;102714.66;;;19.66;44.45
54870;BME280;40756;-37.950;145.008;2023-04-21T06:50:07;102716.08;;;20.00;44.30
54870;BME280;40756;-37.950;145.008;2023-04-21T06:52:37;102713.74;;;19.67;45.30
54870;BME280;40756;-37.950;145.008;2023-04-21T06:55:08;102716.49;;;19.70;45.46
54870;BME280;40756;-37.950;145.008;2023-04-21T06:57:38;102718.46;;;19.71;45.40
54870;BME280;40756;-37.950;145.008;2023-04-21T07:00:08;102719.20;;;19.46;46.59
54870;BME280;40756;-37.950;145.008;2023-04-21T07:02:37;102719.01;;;19.60;45.83
54870;BME280;40756;-37.950;145.008;2023-04-21T07:05:08;102718.70;;;19.40;45.23
54870;BME280;40756;-37.950;145.008;2023-04-21T07:07:37;102720.38;;;19.64;44.57
54870;BME280;40756;-37.950;145.008;2023-04-21T07:10:08;102722.33;;;19.28;44.55
54870;BME280;40756;-37.950;145.008;2023-04-21T07:12:37;102723.80;;;19.72;44.27
54870;BME280;40756;-37.950;145.008;2023-04-21T07:15:08;102723.16;;;19.43;43.79
54870;BME280;40756;-37.950;145.008;2023-04-21T07:17:38;102722.77;;;19.79;44.17
54870;BME280;40756;-37.950;145.008;2023-04-21T07:20:08;102722.50;;;19.33;44.84
54870;BME280;40756;-37.950;145.008;2023-04-21T07:22:38;102727.32;;;19.73;44.75
54870;BME280;40756;-37.950;145.008;2023-04-21T07:25:08;102729.61;;;19.76;44.67
54870;BME280;40756;-37.950;145.008;2023-04-21T07:27:38;102735.28;;;19.48;44.51
54870;BME280;40756;-37.950;145.008;2023-04-21T07:30:08;102735.70;;;19.60;44.56
54870;BME280;40756;-37.950;145.008;2023-04-21T07:32:38;102739.99;;;19.11;44.93
54870;BME280;40756;-37.950;145.008;2023-04-21T07:35:08;102738.49;;;19.54;45.27
54870;BME280;40756;-37.950;145.008;2023-04-21T07:37:37;102743.54;;;19.32;45.29
54870;BME280;40756;-37.950;145.008;2023-04-21T07:40:07;102749.32;;;19.56;45.19
54870;BME280;40756;-37.950;145.008;2023-04-21T07:42:37;102747.31;;;19.41;45.24
54870;BME280;40756;-37.950;145.008;2023-04-21T07:45:07;102748.53;;;19.24;45.13
54870;BME280;40756;-37.950;145.008;2023-04-21T07:47:37;102748.74;;;19.54;45.25
54870;BME280;40756;-37.950;145.008;2023-04-21T07:50:07;102751.08;;;19.43;45.58
54870;BME280;40756;-37.950;145.008;2023-04-21T07:52:36;102753.30;;;19.38;45.58
54870;BME280;40756;-37.950;145.008;2023-04-21T07:55:07;102757.40;;;19.37;45.54
54870;BME280;40756;-37.950;145.008;2023-04-21T07:57:36;102761.45;;;19.29;46.05
54870;BME280;40756;-37.950;145.008;2023-04-21T08:00:07;102764.59;;;19.54;45.87
54870;BME280;40756;-37.950;145.008;2023-04-21T08:02:36;102764.11;;;19.17;45.98
54870;BME280;40756;-37.950;145.008;2023-04-21T08:05:06;102766.21;;;19.10;46.00
54870;BME280;40756;-37.950;145.008;2023-04-21T08:07:36;102766.63;;;19.07;46.01
54870;BME280;40756;-37.950;145.008;2023-04-21T08:10:07;102772.44;;;19.34;46.07
54870;BME280;40756;-37.950;145.008;2023-04-21T08:12:37;102773.46;;;19.13;46.10
54870;BME280;40756;-37.950;145.008;2023-04-21T08:15:07;102775.38;;;19.06;45.92
54870;BME280;40756;-37.950;145.008;2023-04-21T08:17:37;102779.30;;;19.07;45.95
54870;BME280;40756;-37.950;145.008;2023-04-21T08:20:07;102780.69;;;19.34;45.97
54870;BME280;40756;-37.950;145.008;2023-04-21T08:22:37;102783.79;;;19.37;46.43
54870;BME280;40756;-37.950;145.008;2023-04-21T08:25:07;102786.99;;;19.09;46.82
54870;BME280;40756;-37.950;145.008;2023-04-21T08:27:38;102792.13;;;19.04;46.89
54870;BME280;40756;-37.950;145.008;2023-04-21T08:30:09;102797.10;;;19.13;47.00
54870;BME280;40756;-37.950;145.008;2023-04-21T08:32:38;102797.93;;;19.15;47.14
54870;BME280;40756;-37.950;145.008;2023-04-21T08:35:09;102800.07;;;19.17;47.14
54870;BME280;40756;-37.950;145.008;2023-04-21T08:37:39;102801.94;;;18.95;47.26
54870;BME280;40756;-37.950;145.008;2023-04-21T08:40:09;102807.40;;;19.16;47.34
54870;BME280;40756;-37.950;145.008;2023-04-21T08:42:39;102805.88;;;18.94;47.21
54870;BME280;40756;-37.950;145.008;2023-04-21T08:45:10;102807.22;;;19.40;46.95
54870;BME280;40756;-37.950;145.008;2023-04-21T08:47:40;102808.87;;;19.15;46.88
54870;BME280;40756;-37.950;145.008;2023-04-21T08:50:13;102816.20;;;18.90;46.72
54870;BME280;40756;-37.950;145.008;2023-04-21T08:52:43;102820.52;;;19.36;46.99
54870;BME280;40756;-37.950;145.008;2023-04-21T08:55:14;102825.82;;;19.17;47.20
54870;BME280;40756;-37.950;145.008;2023-04-21T08:57:43;102826.59;;;19.37;47.29
54870;BME280;40756;-37.950;145.008;2023-04-21T09:00:14;102825.95;;;19.22;47.35
54870;BME280;40756;-37.950;145.008;2023-04-21T09:03:00;102828.09;;;19.32;47.44
54870;BME280;40756;-37.950;145.008;2023-04-21T09:05:31;102826.56;;;19.17;47.44
54870;BME280;40756;-37.950;145.008;2023-04-21T09:08:10;102823.70;;;19.53;47.48
54870;BME280;40756;-37.950;145.008;2023-04-21T09:10:46;102825.86;;;19.31;47.60
54870;BME280;40756;-37.950;145.008;2023-04-21T09:13:17;102828.85;;;19.07;47.96
54870;BME280;40756;-37.950;145.008;2023-04-21T09:15:48;102826.90;;;19.29;47.99
54870;BME280;40756;-37.950;145.008;2023-04-21T09:18:20;102830.56;;;19.24;47.96
54870;BME280;40756;-37.950;145.008;2023-04-21T09:20:53;102832.93;;;19.48;48.16
54870;BME280;40756;-37.950;145.008;2023-04-21T09:23:40;102833.17;;;19.27;48.29
54870;BME280;40756;-37.950;145.008;2023-04-21T09:26:11;102834.41;;;19.16;48.33
54870;BME280;40756;-37.950;145.008;2023-04-21T09:28:43;102833.78;;;19.18;48.48
54870;BME280;40756;-37.950;145.008;2023-04-21T09:31:16;102834.50;;;19.38;48.26
54870;BME280;40756;-37.950;145.008;2023-04-21T09:33:48;102833.55;;;19.03;48.15
54870;BME280;40756;-37.950;145.008;2023-04-21T09:36:22;102835.90;;;19.45;48.47
54870;BME280;40756;-37.950;145.008;2023-04-21T09:38:57;102834.37;;;19.51;48.82
54870;BME280;40756;-37.950;145.008;2023-04-21T09:41:27;102835.03;;;19.00;48.73
54870;BME280;40756;-37.950;145.008;2023-04-21T09:43:56;102834.72;;;19.43;48.80
54870;BME280;40756;-37.950;145.008;2023-04-21T09:46:26;102836.44;;;19.23;48.53
54870;BME280;40756;-37.950;145.008;2023-04-21T09:48:57;102833.76;;;19.01;48.31
54870;BME280;40756;-37.950;145.008;2023-04-21T09:51:29;102839.68;;;19.24;48.22
54870;BME280;40756;-37.950;145.008;2023-04-21T09:54:02;102839.63;;;19.13;48.80
54870;BME280;40756;-37.950;145.008;2023-04-21T09:56:36;102839.66;;;18.92;48.87
54870;BME280;40756;-37.950;145.008;2023-04-21T09:59:22;102836.47;;;19.43;48.81
54870;BME280;40756;-37.950;145.008;2023-04-21T10:01:54;102833.74;;;19.22;48.79
54870;BME280;40756;-37.950;145.008;2023-04-21T10:04:26;102830.86;;;19.30;49.30
54870;BME280;40756;-37.950;145.008;2023-04-21T10:06:56;102831.72;;;19.15;48.37
54870;BME280;40756;-37.950;145.008;2023-04-21T10:09:32;102832.37;;;19.00;48.50
54870;BME280;40756;-37.950;145.008;2023-04-21T10:12:04;102833.46;;;19.37;48.13
54870;BME280;40756;-37.950;145.008;2023-04-21T10:14:34;102832.35;;;19.28;47.53
54870;BME280;40756;-37.950;145.008;2023-04-21T10:17:05;102833.05;;;19.69;47.34
54870;BME280;40756;-37.950;145.008;2023-04-21T10:19:37;102832.89;;;19.32;48.16
54870;BME280;40756;-37.950;145.008;2023-04-21T10:22:13;102832.07;;;19.57;48.59
54870;BME280;40756;-37.950;145.008;2023-04-21T10:24:43;102833.98;;;19.31;48.81
54870;BME280;40756;-37.950;145.008;2023-04-21T10:27:31;102832.30;;;19.35;48.61
54870;BME280;40756;-37.950;145.008;2023-04-21T10:30:17;102832.98;;;19.34;49.09
54870;BME280;40756;-37.950;145.008;2023-04-21T10:32:47;102833.42;;;19.58;49.02
54870;BME280;40756;-37.950;145.008;2023-04-21T10:35:21;102835.56;;;19.30;49.02
54870;BME280;40756;-37.950;145.008;2023-04-21T10:37:51;102837.15;;;19.21;49.51
54870;BME280;40756;-37.950;145.008;2023-04-21T10:40:41;102837.51;;;19.15;49.63
54870;BME280;40756;-37.950;145.008;2023-04-21T10:43:42;102840.27;;;19.08;49.80
54870;BME280;40756;-37.950;145.008;2023-04-21T10:46:33;102844.25;;;19.08;49.87
54870;BME280;40756;-37.950;145.008;2023-04-21T10:49:07;102845.87;;;19.26;50.01
54870;BME280;40756;-37.950;145.008;2023-04-21T10:52:10;102848.88;;;18.64;50.63
54870;BME280;40756;-37.950;145.008;2023-04-21T10:54:47;102845.99;;;19.00;50.44
54870;BME280;40756;-37.950;145.008;2023-04-21T10:57:34;102845.85;;;19.16;50.24
54870;BME280;40756;-37.950;145.008;2023-04-21T11:00:04;102842.53;;;19.13;50.30
54870;BME280;40756;-37.950;145.008;2023-04-21T11:02:34;102841.64;;;19.16;50.19
54870;BME280;40756;-37.950;145.008;2023-04-21T11:05:06;102842.72;;;19.17;50.21
54870;BME280;40756;-37.950;145.008;2023-04-21T11:07:37;102844.31;;;19.12;50.24
54870;BME280;40756;-37.950;145.008;2023-04-21T11:10:08;102845.55;;;19.03;50.39
54870;BME280;40756;-37.950;145.008;2023-04-21T11:12:39;102846.40;;;18.98;50.51
54870;BME280;40756;-37.950;145.008;2023-04-21T11:15:12;102850.26;;;18.91;50.57
54870;BME280;40756;-37.950;145.008;2023-04-21T11:17:45;102851.22;;;19.13;50.66
54870;BME280;40756;-37.950;145.008;2023-04-21T11:20:15;102855.61;;;18.72;50.08
54870;BME280;40756;-37.950;145.008;2023-04-21T11:22:45;102854.18;;;19.26;50.16
54870;BME280;40756;-37.950;145.008;2023-04-21T11:25:18;102857.62;;;19.22;50.20
54870;BME280;40756;-37.950;145.008;2023-04-21T11:27:57;102861.40;;;19.19;50.25
54870;BME280;40756;-37.950;145.008;2023-04-21T11:30:32;102864.75;;;18.90;50.39
54870;BME280;40756;-37.950;145.008;2023-04-21T11:33:02;102866.55;;;19.34;50.58
54870;BME280;40756;-37.950;145.008;2023-04-21T11:35:32;102868.15;;;18.90;50.55
54870;BME280;40756;-37.950;145.008;2023-04-21T11:38:05;102870.82;;;19.35;50.72
54870;BME280;40756;-37.950;145.008;2023-04-21T11:40:46;102871.84;;;19.06;51.02
54870;BME280;40756;-37.950;145.008;2023-04-21T11:43:16;102875.39;;;19.29;51.16
54870;BME280;40756;-37.950;145.008;2023-04-21T11:45:49;102876.16;;;19.15;50.88
54870;BME280;40756;-37.950;145.008;2023-04-21T11:48:19;102874.24;;;18.91;50.97
54870;BME280;40756;-37.950;145.008;2023-04-21T11:50:51;102873.49;;;19.39;50.70
54870;BME280;40756;-37.950;145.008;2023-04-21T11:53:20;102876.14;;;18.91;50.94
54870;BME280;40756;-37.950;145.008;2023-04-21T11:55:49;102878.44;;;19.09;51.21
54870;BME280;40756;-37.950;145.008;2023-04-21T11:58:21;102879.56;;;18.79;51.45
54870;BME280;40756;-37.950;145.008;2023-04-21T12:00:51;102885.86;;;18.94;51.76
54870;BME280;40756;-37.950;145.008;2023-04-21T12:03:21;102884.77;;;18.92;51.84
54870;BME280;40756;-37.950;145.008;2023-04-21T12:05:56;102886.91;;;18.68;51.90
54870;BME280;40756;-37.950;145.008;2023-04-21T12:08:28;102892.45;;;18.91;51.93
54870;BME280;40756;-37.950;145.008;2023-04-21T12:10:57;102891.71;;;18.71;52.00
54870;BME280;40756;-37.950;145.008;2023-04-21T12:13:28;102894.36;;;19.15;52.09
54870;BME280;40756;-37.950;145.008;2023-04-21T12:15:58;102896.15;;;19.11;52.15
54870;BME280;40756;-37.950;145.008;2023-04-21T12:18:32;102893.75;;;19.13;51.98
54870;BME280;40756;-37.950;145.008;2023-04-21T12:21:02;102894.14;;;18.90;52.06
54870;BME280;40756;-37.950;145.008;2023-04-21T12:23:32;102891.47;;;19.12;52.15
54870;BME280;40756;-37.950;145.008;2023-04-21T12:26:01;102889.58;;;18.93;52.17
54870;BME280;40756;-37.950;145.008;2023-04-21T12:28:31;102891.20;;;18.67;52.19
54870;BME280;40756;-37.950;145.008;2023-04-21T12:31:00;102893.01;;;18.78;52.37
54870;BME280;40756;-37.950;145.008;2023-04-21T12:33:30;102894.93;;;18.74;52.51
54870;BME280;40756;-37.950;145.008;2023-04-21T12:35:59;102895.88;;;18.81;52.47
54870;BME280;40756;-37.950;145.008;2023-04-21T12:38:29;102895.53;;;19.02;52.58